Latest Coastal Weather Observations for Eucla

IDW60701

Issued at 4:52 pm WST Thursday 27 April 2017 (issued every 10 minutes, with the page automatically refreshed every 10 minutes)

About coastal observations | Map of coastal stations | Coastal observations for WA | Marine services | Other Formats
Station Details ID: 011003 Name: EUCLA Lat: -31.68 Lon: 128.90 Height: 93.1 m
Data from the previous 72 hours. | See also: Recent months at Eucla
Date/Time
WST
Temp
°C
Wind Pressure Rain since
9am
mm
Weather Cloud Vis
km
Sea
Height
m
Swell
Dir  Spd
kts
Gust
kts
hPa Trend Height
m
Period
s
Dir
27/04:30pm 16.4 ESE 7 12 1027.5 - 0.0 - - - - - - -
27/04:00pm 17.3 ESE 8 12 1027.5 - 0.0 - - - - - - -
27/03:30pm 17.6 SE 8 12 1027.6 - 0.0 - - - - - - -
27/03:00pm 18.6 SE 9 14 1027.6 - 0.0 Fine Mostly clear 40 - - - -
27/02:30pm 18.9 SE 9 14 1027.8 - 0.0 - - - - - - -
27/02:00pm 19.2 SE 8 14 1027.9 - 0.0 - - - - - - -
27/01:30pm 19.3 ESE 9 14 1028.1 - 0.0 - - - - - - -
27/01:00pm 20.1 ESE 8 14 1028.3 - 0.0 - - - - - - -
27/12:30pm 19.3 SE 8 13 1028.6 - 0.0 - - - - - - -
27/12:00pm 19.6 SE 8 15 1029.0 - 0.0 - - - - - - -
27/11:30am 19.2 SE 10 15 1029.4 - 0.0 - - - - - - -
27/11:00am 19.8 SE 9 14 1029.8 - 0.0 - - - - - - -
27/10:30am 19.7 SSE 8 14 1030.2 - 0.0 - - - - - - -
27/10:00am 19.2 ESE 6 10 1030.4 - 0.0 - - - - - - -
27/09:30am 19.0 E 4 7 1030.7 - 0.0 - - - - - - -
27/09:00am 17.8 ESE 5 7 1030.8 - 0.0 Fine Partly cloudy 40 - - - -
27/08:30am 17.5 ESE 5 6 1030.8 - 0.0 - - - - - - -
27/08:00am 16.7 ESE 1 4 1030.8 - 0.0 - - - - - - -
27/07:30am 15.8 NNE 1 3 1030.7 - 0.0 - - - - - - -
27/07:00am 15.3 NNE 4 6 1030.4 - 0.0 - - - - - - -
27/06:30am 13.6 N 2 5 1030.1 - 0.0 - - - - - - -
27/06:00am 13.1 NNW 3 4 1030.0 - 0.0 - - - - - - -
27/05:30am 13.2 N 3 4 1029.8 - 0.0 - - - - - - -
27/05:00am 13.0 N 4 5 1029.6 - 0.0 - - - - - - -
27/04:30am 12.7 N 4 5 1029.5 - 0.0 - - - - - - -
27/04:00am 12.9 NNE 4 5 1029.5 - 0.0 - - - - - - -
27/03:30am 13.1 N 4 5 1029.3 - 0.0 - - - - - - -
27/03:00am 13.2 N 5 6 1029.2 - 0.0 - - - - - - -
27/02:30am 13.3 N 5 6 1029.1 - 0.0 - - - - - - -
27/02:00am 13.2 N 5 6 1029.0 - 0.0 - - - - - - -
27/01:30am 12.9 NNE 5 6 1029.0 - 0.0 - - - - - - -
27/01:00am 13.1 N 4 5 1028.9 - 0.0 - - - - - - -
27/12:30am 13.3 NNE 4 5 1028.8 - 0.0 - - - - - - -
27/12:00am 14.4 NE 4 6 1028.6 - 0.0 - - - - - - -
 
Date/Time
WST
Temp
°C
Wind Pressure Rain since
9am
mm
Weather Cloud Vis
km
Sea
Height
m
Swell
Dir  Spd
kts
Gust
kts
hPa Trend Height
m
Period
s
Dir
26/11:30pm 14.4 ESE 4 6 1028.5 - 0.0 - - - - - - -
26/11:00pm 14.7 ESE 5 7 1028.6 - 0.0 - - - - - - -
26/10:30pm 14.9 SE 4 6 1028.6 - 0.0 - - - - - - -
26/10:00pm 13.8 SE 6 8 1028.6 - 0.0 - - - - - - -
26/09:30pm 12.3 SE 4 5 1028.7 - 0.0 - - - - - - -
26/09:00pm 13.5 SE 5 7 1028.8 - 0.0 - - - - - - -
26/08:30pm 14.2 SSE 6 8 1028.5 - 0.0 - - - - - - -
26/08:00pm 14.6 SE 4 6 1028.5 - 0.0 - - - - - - -
26/07:30pm 14.4 SE 5 7 1028.4 - 0.0 - - - - - - -
26/07:00pm 14.1 SE 4 5 1028.2 - 0.0 - - - - - - -
26/06:30pm 14.0 SE 5 6 1027.9 - 0.0 - - - - - - -
26/06:00pm 14.2 SE 4 5 1027.6 - 0.0 - - - - - - -
26/05:30pm 15.3 SSE 5 8 1027.4 - 0.0 - - - - - - -
26/05:00pm 15.8 SSE 7 10 1027.3 - 0.0 - - - - - - -
26/04:30pm 16.4 SSE 7 10 1027.1 - 0.0 - - - - - - -
26/04:00pm 16.8 SSE 8 12 1027.1 - 0.0 - - - - - - -
26/03:30pm 17.5 SSE 8 12 1027.1 - 0.0 - - - - - - -
26/03:00pm 18.0 SSE 7 14 1027.1 - 0.0 Fine Mostly clear 40 - - - -
26/02:30pm 18.3 SSE 9 16 1027.1 - 0.0 - - - - - - -
26/02:00pm 18.3 SSE 7 13 1026.9 - 0.0 - - - - - - -
26/01:30pm 18.5 ESE 8 12 1026.9 - 0.0 - - - - - - -
26/01:00pm 18.4 SSE 8 13 1027.1 - 0.0 - - - - - - -
26/12:30pm 18.7 SE 7 13 1027.3 - 0.0 - - - - - - -
26/12:00pm 18.8 S 7 10 1027.5 - 0.0 - - - - - - -
26/11:30am 18.4 SSE 8 14 1027.8 - 0.0 - - - - - - -
26/11:00am 18.8 SSE 8 12 1028.0 - 0.0 - - - - - - -
26/10:30am 17.9 S 8 14 1028.5 - 0.0 - - - - - - -
26/10:00am 18.9 SSE 7 12 1028.6 - 0.0 - - - - - - -
26/09:30am 16.9 SSE 7 10 1028.8 - 0.0 - - - - - - -
26/09:00am 17.6 SE 7 9 1028.7 - 0.6 Fine Partly cloudy 40 - - - -
26/08:30am 16.9 S 7 10 1028.4 - 0.6 - - - - - - -
26/08:00am 16.0 SSE 7 9 1028.2 - 0.6 - - - - - - -
26/07:30am 16.2 SSE 8 13 1028.0 - 0.6 - - - - - - -
26/07:00am 15.2 SSE 5 11 1027.4 - 0.6 - - - - - - -
26/06:30am 14.1 SW 5 7 1027.1 - 0.6 - - - - - - -
26/06:00am 12.9 WSW 4 6 1026.9 - 0.6 - - - - - - -
26/05:30am 13.3 SW 5 7 1026.9 - 0.6 - - - - - - -
26/05:00am 12.5 SSW 3 4 1026.7 - 0.6 - - - - - - -
26/04:30am 12.9 S 4 6 1026.6 - 0.6 - - - - - - -
26/04:00am 13.4 S 4 7 1026.2 - 0.6 - - - - - - -
26/03:30am 13.2 S 7 9 1025.9 - 0.6 - - - - - - -
26/03:00am 13.6 SSE 7 10 1025.6 - 0.6 - - - - - - -
26/02:30am 13.8 SSE 8 12 1025.6 - 0.6 - - - - - - -
26/02:00am 13.9 S 6 8 1025.7 - 0.6 - - - - - - -
26/01:30am 14.4 S 8 12 1025.6 - 0.6 - - - - - - -
26/01:00am 14.8 S 8 13 1025.4 - 0.6 - - - - - - -
26/12:30am 15.0 S 9 16 1025.2 - 0.6 - - - - - - -
26/12:00am 14.8 SSW 5 8 1025.1 - 0.6 Rain - - - - - -
 
Date/Time
WST
Temp
°C
Wind Pressure Rain since
9am
mm
Weather Cloud Vis
km
Sea
Height
m
Swell
Dir  Spd
kts
Gust
kts
hPa Trend Height
m
Period
s
Dir
25/11:30pm 14.6 SSW 6 9 1025.1 - 0.4 - - - - - - -
25/11:00pm 15.0 S 7 9 1025.0 - 0.4 - - - - - - -
25/10:30pm 15.4 S 7 12 1024.9 - 0.4 - - - - - - -
25/10:00pm 15.8 S 8 14 1024.7 - 0.4 - - - - - - -
25/09:30pm 15.4 SSE 10 15 1024.8 - 0.4 - - - - - - -
25/09:00pm 15.4 S 7 10 1024.6 - 0.4 - - - - - - -
25/08:30pm 15.0 S 8 15 1024.7 - 0.4 - - - - - - -
25/08:00pm 15.3 S 10 17 1024.5 - 0.4 - - - - - - -
25/07:30pm 15.5 SSW 8 15 1024.2 - 0.4 - - - - - - -
25/07:00pm 16.4 SSW 7 11 1024.0 - 0.0 - - - - - - -
25/06:30pm 16.2 SSW 7 12 1023.7 - 0.0 - - - - - - -
25/06:00pm 16.5 SSW 9 12 1023.3 - 0.0 - - - - - - -
25/05:30pm 17.0 SSW 9 15 1022.7 - 0.0 - - - - - - -
25/05:00pm 17.1 SW 8 12 1022.5 - 0.0 - - - - - - -
25/04:30pm 17.1 SW 10 16 1022.3 - 0.0 - - - - - - -
25/04:00pm 17.7 SW 11 18 1022.1 - 0.0 - - - - - - -
25/03:30pm 17.9 SW 11 17 1022.1 - 0.0 - - - - - - -
25/03:00pm 18.4 SW 11 18 1021.8 - 0.0 - - - - - - -
25/02:30pm 17.6 WSW 14 22 1021.7 - 0.0 - - - - - - -
25/02:00pm 18.8 SW 14 20 1021.3 - 0.0 - - - - - - -
25/01:30pm 20.5 WSW 11 18 1021.0 - 0.0 - - - - - - -
25/01:00pm 20.6 SW 7 12 1021.1 - 0.0 - - - - - - -
25/12:30pm 20.2 SSW 11 19 1021.3 - 0.0 - - - - - - -
25/12:00pm 19.2 SW 12 20 1021.7 - 0.0 - - - - - - -
25/11:30am 19.7 SSW 10 16 1021.7 - 0.0 - - - - - - -
25/11:00am 21.0 SW 8 15 1021.7 - 0.0 - - - - - - -
25/10:30am 21.0 SW 8 14 1022.0 - 0.0 - - - - - - -
25/10:00am 20.1 WSW 7 11 1022.2 - 0.0 - - - - - - -
25/09:30am 20.2 SW 6 10 1022.3 - 0.0 - - - - - - -
25/09:00am 19.2 WSW 9 15 1022.4 - 0.4 - - - - - - -
25/08:30am 18.6 WSW 8 14 1022.2 - 0.4 - - - - - - -
25/08:00am 17.6 W 8 11 1022.0 - 0.4 - - - - - - -
25/07:30am 16.2 W 7 10 1021.7 - 0.4 - - - - - - -
25/07:00am 15.1 WNW 6 8 1021.4 - 0.4 - - - - - - -
25/06:30am 13.5 WNW 6 8 1021.1 - 0.4 - - - - - - -
25/06:00am 13.4 WNW 6 8 1020.9 - 0.4 - - - - - - -
25/05:30am 13.6 WNW 6 8 1020.7 - 0.4 - - - - - - -
25/05:00am 13.6 WNW 7 9 1020.6 - 0.4 - - - - - - -
25/04:30am 13.3 WNW 6 7 1020.1 - 0.4 - - - - - - -
25/04:00am 13.0 WNW 5 6 1020.0 - 0.4 - - - - - - -
25/03:30am 13.0 W 7 9 1019.9 - 0.4 - - - - - - -
25/03:00am 12.5 WSW 7 9 1019.6 - 0.4 - - - - - - -
25/02:30am 13.1 W 6 9 1019.7 - 0.4 - - - - - - -
25/02:00am 13.4 WNW 5 7 1019.6 - 0.4 - - - - - - -
25/01:30am 12.0 WNW 5 6 1019.6 - 0.4 - - - - - - -
25/01:00am 13.1 WNW 5 6 1019.6 - 0.4 - - - - - - -
25/12:30am 13.8 WNW 5 6 1019.8 - 0.4 - - - - - - -
25/12:00am 14.3 W 5 6 1020.0 - 0.4 - - - - - - -
 
Date/Time
WST
Temp
°C
Wind Pressure Rain since
9am
mm
Weather Cloud Vis
km
Sea
Height
m
Swell
Dir  Spd
kts
Gust
kts
hPa Trend Height
m
Period
s
Dir
24/11:30pm 14.8 W 4 6 1020.1 - 0.4 - - - - - - -
24/11:00pm 15.6 WSW 4 5 1020.2 - 0.4 - - - - - - -
24/10:30pm 15.5 SW 5 9 1020.2 - 0.4 - - - - - - -
24/10:00pm 15.4 SW 5 7 1020.6 - 0.4 - - - - - - -
24/09:30pm 14.9 SW 5 8 1020.7 - 0.4 - - - - - - -
24/09:00pm 15.3 SW 5 7 1020.6 - 0.4 - - - - - - -
24/08:30pm 15.2 SSW 5 7 1020.6 - 0.4 - - - - - - -
24/08:00pm 15.1 S 6 9 1020.4 - 0.4 - - - - - - -
24/07:30pm 15.1 S 6 8 1020.3 - 0.4 - - - - - - -
24/07:00pm 14.9 S 6 9 1020.2 - 0.4 - - - - - - -
24/06:30pm 14.8 SSW 6 8 1019.9 - 0.4 - - - - - - -
24/06:00pm 15.3 SSW 7 9 1019.7 - 0.4 - - - - - - -
24/05:30pm 15.8 S 6 9 1019.4 - 0.4 - - - - - - -
24/05:00pm 16.1 S 6 12 1019.2 - 0.4 - - - - - - -

Other Formats:

Comma delimited format used in spreadsheet applications
http://www.bom.gov.au/fwo/IDW60701/IDW60701.94647.axf

JavaScript Object Notation format (JSON) in row-major order
http://www.bom.gov.au/fwo/IDW60701/IDW60701.94647.json